Terminal Aerodrome Forecast
Issued by NWS

Home | Current Version | Previous Version | Text Only | Print | Product List | Glossary On
Versions: 1 2 3 4 5 6 7 8 9 10 11 12 13 14 15 16 17 18 19 20 21 22 23
000
FTUS41 KILN 271133
TAFLUK
TAF
KLUK 271133Z 2712/2812 00000KT P6SM BKN150
      TEMPO 2712/2713 4SM BR BKN002
     FM271300 VRB03KT P6SM SCT035 BKN150
     FM271600 29004KT P6SM VCTS BKN040CB BKN150
     FM280100 00000KT P6SM BKN120
     FM280600 00000KT 3SM BR BKN050=

USA.gov is the U.S. government's official web portal to all federal, state and local government web resources and services.